createdAt,value
2022-09-03T00:01:00.961Z,65.65
2022-09-03T00:03:33.162Z,65.62
2022-09-03T00:06:07.460Z,66.17
2022-09-03T00:08:38.972Z,67.27
2022-09-03T00:11:13.346Z,67.42
2022-09-03T00:13:43.784Z,67.77
2022-09-03T00:16:15.039Z,68.34
2022-09-03T00:18:45.719Z,68.03
2022-09-03T00:21:15.131Z,68.59
2022-09-03T00:23:45.622Z,68.83
2022-09-03T00:26:22.965Z,68.86
2022-09-03T00:28:52.458Z,68.91
2022-09-03T00:31:24.434Z,69.38
2022-09-03T00:33:53.756Z,69.54
2022-09-03T00:36:24.570Z,69.90
2022-09-03T00:38:52.239Z,71.20
2022-09-03T00:41:26.480Z,71.06
2022-09-03T00:44:02.011Z,71.18
2022-09-03T00:46:38.466Z,71.45
2022-09-03T00:49:20.977Z,71.46
2022-09-03T00:51:52.667Z,72.25
2022-09-03T00:54:27.121Z,72.55
2022-09-03T00:56:57.259Z,72.39
2022-09-03T00:59:30.921Z,73.25
2022-09-03T01:02:05.983Z,73.29
2022-09-03T01:04:40.001Z,73.66
2022-09-03T01:07:15.874Z,74.65
2022-09-03T01:09:49.069Z,74.47
2022-09-03T01:12:20.174Z,74.48
2022-09-03T01:14:56.280Z,74.55
2022-09-03T01:17:31.216Z,74.35
2022-09-03T01:20:13.697Z,74.87
2022-09-03T01:22:52.969Z,74.88
2022-09-03T01:25:31.200Z,74.57
2022-09-03T01:28:13.533Z,74.13
2022-09-03T01:30:47.256Z,73.84
2022-09-03T01:33:20.760Z,73.43
2022-09-03T01:35:49.489Z,73.32
2022-09-03T01:38:21.949Z,73.22
2022-09-03T01:40:57.608Z,73.62
2022-09-03T01:43:39.220Z,73.16
2022-09-03T01:46:14.067Z,73.49
2022-09-03T01:48:47.130Z,73.13
2022-09-03T01:51:19.540Z,73.22
2022-09-03T01:53:55.468Z,72.96
2022-09-03T01:56:39.030Z,72.90
2022-09-03T01:59:10.657Z,72.74
2022-09-03T02:01:41.173Z,72.25
2022-09-03T02:04:15.393Z,72.12
2022-09-03T02:06:44.660Z,72.20
2022-09-03T02:09:12.238Z,72.34
2022-09-03T02:11:40.181Z,72.92
2022-09-03T02:14:09.644Z,72.56
2022-09-03T02:16:37.313Z,72.33
2022-09-03T02:19:06.851Z,73.29
2022-09-03T02:21:36.928Z,73.07
2022-09-03T02:24:04.919Z,73.04
2022-09-03T02:26:32.520Z,72.66
2022-09-03T02:29:00.681Z,72.61
2022-09-03T02:31:29.934Z,72.61
2022-09-03T02:33:58.532Z,72.52
2022-09-03T02:36:29.120Z,72.42
2022-09-03T02:38:56.655Z,72.28
2022-09-03T02:41:27.312Z,72.59
2022-09-03T02:43:57.946Z,73.04
2022-09-03T02:46:28.766Z,72.58
2022-09-03T02:48:57.660Z,72.68
2022-09-03T02:51:25.187Z,72.50
2022-09-03T02:53:54.466Z,72.88
2022-09-03T02:56:26.854Z,73.06
2022-09-03T02:58:54.504Z,73.05
2022-09-03T03:01:24.089Z,73.33
2022-09-03T03:03:51.887Z,73.74
2022-09-03T03:06:21.448Z,73.99
2022-09-03T03:08:49.799Z,74.37
2022-09-03T03:11:18.385Z,74.78
2022-09-03T03:13:46.629Z,75.01
2022-09-03T03:16:15.080Z,75.04
2022-09-03T03:18:42.679Z,74.87
2022-09-03T03:21:11.447Z,75.43
2022-09-03T03:23:40.673Z,75.26
2022-09-03T03:26:09.486Z,75.35
2022-09-03T03:28:37.402Z,75.16
2022-09-03T03:31:08.719Z,74.67
2022-09-03T03:33:36.612Z,75.00
2022-09-03T03:36:08.023Z,74.76
2022-09-03T03:38:35.727Z,74.74
2022-09-03T03:41:09.105Z,74.90
2022-09-03T03:43:36.629Z,74.73
2022-09-03T03:46:05.298Z,75.01
2022-09-03T03:48:33.028Z,75.65
2022-09-03T03:51:01.605Z,75.91
2022-09-03T03:53:29.169Z,76.02
2022-09-03T03:55:57.104Z,76.02
2022-09-03T03:58:26.321Z,75.83
2022-09-03T04:00:54.165Z,76.25
2022-09-03T04:03:22.049Z,75.60
2022-09-03T04:05:56.563Z,76.19
2022-09-03T04:08:24.369Z,76.24
2022-09-03T04:10:52.004Z,76.72
2022-09-03T04:13:19.560Z,76.74
2022-09-03T04:15:48.442Z,77.00
2022-09-03T04:18:16.045Z,77.66
2022-09-03T04:20:44.181Z,77.50
2022-09-03T04:23:12.710Z,77.85
2022-09-03T04:25:41.841Z,78.13
2022-09-03T04:28:09.362Z,77.93
2022-09-03T04:30:38.269Z,78.30
2022-09-03T04:33:07.367Z,78.07
2022-09-03T04:35:43.983Z,79.18
2022-09-03T04:38:11.513Z,79.43
2022-09-03T04:40:39.257Z,79.45
2022-09-03T04:43:06.795Z,79.95
2022-09-03T04:45:34.458Z,80.10
2022-09-03T04:48:02.760Z,80.70
2022-09-03T04:50:35.533Z,80.63
2022-09-03T04:53:07.800Z,81.01
2022-09-03T04:55:36.298Z,81.46
2022-09-03T04:58:03.936Z,81.65
2022-09-03T05:00:31.914Z,81.87
2022-09-03T05:03:01.215Z,81.84
2022-09-03T05:05:28.860Z,82.10
2022-09-03T05:08:01.765Z,81.88
2022-09-03T05:10:29.297Z,81.88
2022-09-03T05:13:00.538Z,82.14
2022-09-03T05:15:28.156Z,82.25
2022-09-03T05:17:59.150Z,82.36
2022-09-03T05:20:27.905Z,82.66
2022-09-03T05:22:55.553Z,82.68
2022-09-03T05:25:24.542Z,83.40
2022-09-03T05:27:52.071Z,83.92
2022-09-03T05:30:22.741Z,84.00
2022-09-03T05:32:50.255Z,84.58
2022-09-03T05:35:17.866Z,84.50
2022-09-03T05:37:45.555Z,84.79
2022-09-03T05:40:13.098Z,85.03
2022-09-03T05:42:42.020Z,85.31
2022-09-03T05:45:10.865Z,85.46
2022-09-03T05:47:39.541Z,85.78
2022-09-03T05:50:08.737Z,86.18
2022-09-03T05:52:36.716Z,86.22
2022-09-03T05:55:04.540Z,85.87
2022-09-03T05:57:32.362Z,85.62
2022-09-03T06:00:01.562Z,85.96
2022-09-03T06:02:29.320Z,85.76
2022-09-03T06:04:57.687Z,85.63
2022-09-03T06:07:27.249Z,85.46
2022-09-03T06:09:54.778Z,85.37
2022-09-03T06:12:22.415Z,84.92
2022-09-03T06:14:49.968Z,84.86
2022-09-03T06:17:18.873Z,84.75
2022-09-03T06:19:46.401Z,85.05
2022-09-03T06:22:13.984Z,84.84
2022-09-03T06:24:41.563Z,84.65
2022-09-03T06:27:09.111Z,84.88
2022-09-03T06:29:37.023Z,84.44
2022-09-03T06:32:05.001Z,84.01
2022-09-03T06:34:33.969Z,83.60
2022-09-03T06:37:01.710Z,83.06
2022-09-03T06:39:29.473Z,82.92
2022-09-03T06:41:56.992Z,82.25
2022-09-03T06:44:35.335Z,81.55
2022-09-03T06:47:02.885Z,80.52
2022-09-03T06:49:31.896Z,79.52
2022-09-03T06:52:00.788Z,78.82
2022-09-03T06:54:28.401Z,78.55
2022-09-03T06:56:55.973Z,77.08
2022-09-03T06:59:23.590Z,74.52
2022-09-03T07:01:51.254Z,73.38
2022-09-03T07:04:20.386Z,69.78
2022-09-03T07:06:48.148Z,66.34
2022-09-03T07:09:18.959Z,63.75
2022-09-03T07:11:49.693Z,63.80
2022-09-03T07:14:18.555Z,61.75
2022-09-03T07:16:47.014Z,58.40
2022-09-03T07:19:14.737Z,55.87
2022-09-03T07:21:46.746Z,55.27
2022-09-03T07:24:18.542Z,54.43
2022-09-03T07:26:47.029Z,53.71
2022-09-03T07:29:15.921Z,53.24
2022-09-03T07:31:44.470Z,51.45
2022-09-03T07:34:13.315Z,50.35
2022-09-03T07:36:42.938Z,47.26
2022-09-03T07:39:11.674Z,47.32
2022-09-03T07:41:42.699Z,45.79
2022-09-03T07:44:10.446Z,46.78
2022-09-03T07:46:39.723Z,46.37
2022-09-03T07:49:07.518Z,44.08
2022-09-03T07:51:35.998Z,44.43
2022-09-03T07:54:05.643Z,43.73
2022-09-03T07:56:35.109Z,44.82
2022-09-03T07:59:04.786Z,42.85
2022-09-03T08:01:33.736Z,42.13
2022-09-03T08:04:01.794Z,40.32
2022-09-03T08:06:30.870Z,39.96
2022-09-03T08:09:04.557Z,39.89
2022-09-03T08:11:33.292Z,41.16
2022-09-03T08:14:02.716Z,39.83
2022-09-03T08:16:32.376Z,39.97
2022-09-03T08:19:00.520Z,37.20
2022-09-03T08:21:28.352Z,36.77
2022-09-03T08:24:02.402Z,37.72
2022-09-03T08:26:30.950Z,38.38
2022-09-03T08:28:58.692Z,37.20
2022-09-03T08:31:27.922Z,38.18
2022-09-03T08:33:57.869Z,38.15
2022-09-03T08:36:26.881Z,37.05
2022-09-03T08:38:55.858Z,36.29
2022-09-03T08:41:30.195Z,37.30
2022-09-03T08:44:05.783Z,35.38
2022-09-03T08:46:36.844Z,36.63
2022-09-03T08:49:06.504Z,35.76
2022-09-03T08:51:38.519Z,36.07
2022-09-03T08:54:07.268Z,35.76
2022-09-03T08:56:38.099Z,35.15
2022-09-03T08:59:05.876Z,35.73
2022-09-03T09:01:39.224Z,33.84
2022-09-03T09:04:13.659Z,34.72
2022-09-03T09:06:44.083Z,35.35
2022-09-03T09:09:19.429Z,35.27
2022-09-03T09:11:55.343Z,34.22
2022-09-03T09:14:28.060Z,33.58
2022-09-03T09:17:00.791Z,33.68
2022-09-03T09:19:40.586Z,35.01
2022-09-03T09:22:10.149Z,35.56
2022-09-03T09:24:41.218Z,34.00
2022-09-03T09:27:12.817Z,33.83
2022-09-03T09:29:43.000Z,33.45
2022-09-03T09:32:13.615Z,34.20
2022-09-03T09:34:42.573Z,33.53
2022-09-03T09:37:13.204Z,32.99
2022-09-03T09:39:41.004Z,34.57
2022-09-03T09:42:09.585Z,34.15
2022-09-03T09:44:37.591Z,33.77
2022-09-03T09:47:06.738Z,34.95
2022-09-03T09:49:35.601Z,33.86
2022-09-03T09:52:06.140Z,33.51
2022-09-03T09:54:33.682Z,33.17
2022-09-03T09:57:03.649Z,32.61
2022-09-03T09:59:31.794Z,31.94
2022-09-03T10:02:09.189Z,30.74
2022-09-03T10:04:37.690Z,31.45
2022-09-03T10:07:24.243Z,31.96
2022-09-03T10:10:02.375Z,31.56
2022-09-03T10:12:34.771Z,31.33
2022-09-03T10:15:07.530Z,32.00
2022-09-03T10:17:41.880Z,30.85
2022-09-03T10:20:38.918Z,32.49
2022-09-03T10:23:10.904Z,32.26
2022-09-03T10:25:41.509Z,30.63
2022-09-03T10:28:13.282Z,30.93
2022-09-03T10:30:50.185Z,30.99
2022-09-03T10:33:20.198Z,31.20
2022-09-03T10:35:53.191Z,30.33
2022-09-03T10:38:28.442Z,30.67
2022-09-03T10:41:02.557Z,30.36
2022-09-03T10:43:41.816Z,30.54
2022-09-03T10:46:11.676Z,31.22
2022-09-03T10:48:43.122Z,32.02
2022-09-03T10:51:15.221Z,31.90
2022-09-03T10:53:54.466Z,30.98
2022-09-03T10:56:26.079Z,30.76
2022-09-03T10:59:03.765Z,31.28
2022-09-03T11:01:35.551Z,32.54
2022-09-03T11:04:15.220Z,31.03
2022-09-03T11:06:48.314Z,31.54
2022-09-03T11:09:20.124Z,31.52
2022-09-03T11:11:50.537Z,30.97
2022-09-03T11:14:26.133Z,30.79
2022-09-03T11:16:56.496Z,30.40
2022-09-03T11:19:28.264Z,30.47
2022-09-03T11:21:55.976Z,29.71
2022-09-03T11:24:27.701Z,30.72
2022-09-03T11:26:58.976Z,30.80
2022-09-03T11:29:32.374Z,29.32
2022-09-03T11:32:02.416Z,31.78
2022-09-03T11:34:32.909Z,29.57
2022-09-03T11:37:18.663Z,29.36
2022-09-03T11:39:54.639Z,30.61
2022-09-03T11:42:36.032Z,30.37
2022-09-03T11:45:15.240Z,29.85
2022-09-03T11:47:43.882Z,29.80
2022-09-03T11:50:20.668Z,29.36
2022-09-03T11:52:49.143Z,29.93
2022-09-03T11:55:38.378Z,30.88
2022-09-03T11:58:13.329Z,30.90
2022-09-03T12:00:44.525Z,30.49
2022-09-03T12:03:15.883Z,29.83
2022-09-03T12:05:48.189Z,29.15
2022-09-03T12:08:43.560Z,29.91
2022-09-03T12:11:22.024Z,30.37
2022-09-03T12:13:52.428Z,30.25
2022-09-03T12:16:26.407Z,30.34
2022-09-03T12:18:55.492Z,30.88
2022-09-03T12:21:23.109Z,30.28
2022-09-03T12:23:52.804Z,30.30
2022-09-03T12:26:28.019Z,29.98
2022-09-03T12:28:57.217Z,30.42
2022-09-03T12:31:28.113Z,29.97
2022-09-03T12:33:59.006Z,31.14
2022-09-03T12:36:27.081Z,30.05
2022-09-03T12:39:11.417Z,31.25
2022-09-03T12:41:54.738Z,30.28
2022-09-03T12:44:27.010Z,30.30
2022-09-03T12:49:49.390Z,30.19
2022-09-03T12:52:19.336Z,30.11
2022-09-03T12:54:50.760Z,30.43
2022-09-03T12:57:21.723Z,30.40
2022-09-03T12:59:50.520Z,30.64
2022-09-03T13:02:19.829Z,30.44
2022-09-03T13:04:47.958Z,30.80
2022-09-03T13:07:21.232Z,30.64
2022-09-03T13:09:49.369Z,30.91
2022-09-03T13:12:30.217Z,29.49
2022-09-03T13:14:58.917Z,30.45
2022-09-03T13:17:41.566Z,30.47
2022-09-03T13:20:16.083Z,30.02
2022-09-03T13:22:58.635Z,30.48
2022-09-03T13:25:29.736Z,30.23
2022-09-03T13:28:08.767Z,30.13
2022-09-03T13:30:44.271Z,30.13
2022-09-03T13:33:17.617Z,30.26
2022-09-03T13:35:48.519Z,30.87
2022-09-03T13:38:23.960Z,30.07
2022-09-03T13:40:56.494Z,30.04
2022-09-03T13:43:30.930Z,30.58
2022-09-03T13:46:00.324Z,30.00
2022-09-03T13:48:49.389Z,30.61
2022-09-03T13:51:19.627Z,30.07
2022-09-03T13:53:53.357Z,30.30
2022-09-03T13:56:27.385Z,30.52
2022-09-03T13:58:58.303Z,30.12
2022-09-03T14:01:28.370Z,29.73
2022-09-03T14:03:58.032Z,30.17
2022-09-03T14:06:33.081Z,29.65
2022-09-03T14:09:05.441Z,29.88
2022-09-03T14:11:36.110Z,30.31
2022-09-03T14:14:10.462Z,30.06
2022-09-03T14:16:42.165Z,30.12
2022-09-03T14:19:12.377Z,29.87
2022-09-03T14:21:43.720Z,29.57
2022-09-03T14:24:15.159Z,29.52
2022-09-03T14:26:51.128Z,29.04
2022-09-03T14:29:22.029Z,29.65
2022-09-03T14:31:58.898Z,30.57
2022-09-03T14:34:33.526Z,29.82
2022-09-03T14:37:06.042Z,29.95
2022-09-03T14:39:34.836Z,30.14
2022-09-03T14:42:23.805Z,30.01
2022-09-03T14:44:57.419Z,30.52
2022-09-03T14:47:31.050Z,30.51
2022-09-03T14:50:09.959Z,30.57
2022-09-03T14:52:56.964Z,31.04
2022-09-03T14:55:34.353Z,30.91
2022-09-03T14:58:10.897Z,30.87
2022-09-03T15:00:47.219Z,30.49
2022-09-03T15:03:23.067Z,30.26
2022-09-03T15:05:56.279Z,30.97
2022-09-03T15:08:40.295Z,30.95
2022-09-03T15:11:14.596Z,31.28
2022-09-03T15:13:46.187Z,30.49
2022-09-03T15:16:22.539Z,30.63
2022-09-03T15:19:01.780Z,30.64
2022-09-03T15:21:36.064Z,30.75
2022-09-03T15:24:07.295Z,31.74
2022-09-03T15:26:48.214Z,30.61
2022-09-03T15:29:28.112Z,30.74
2022-09-03T15:32:03.564Z,30.82
2022-09-03T15:34:44.563Z,31.26
2022-09-03T15:37:14.506Z,30.86
2022-09-03T15:39:45.230Z,31.58
2022-09-03T15:42:18.390Z,30.82
2022-09-03T15:44:48.816Z,30.74
2022-09-03T15:47:40.061Z,30.40
2022-09-03T15:50:27.323Z,30.28
2022-09-03T15:52:57.476Z,31.36
2022-09-03T15:55:27.503Z,30.72
2022-09-03T15:58:09.414Z,31.09
2022-09-03T16:00:45.051Z,31.01
2022-09-03T16:03:20.434Z,31.09
2022-09-03T16:05:55.325Z,31.09
2022-09-03T16:08:25.621Z,31.49
2022-09-03T16:11:01.680Z,31.91
2022-09-03T16:13:35.939Z,31.17
2022-09-03T16:16:05.129Z,31.34
2022-09-03T16:18:38.256Z,31.68
2022-09-03T16:21:08.632Z,31.46
2022-09-03T16:23:39.223Z,32.02
2022-09-03T16:26:12.034Z,32.10
2022-09-03T16:28:50.240Z,31.81
2022-09-03T16:31:26.221Z,32.04
2022-09-03T16:34:00.039Z,32.06
2022-09-03T16:36:33.772Z,33.37
2022-09-03T16:39:03.994Z,32.74
2022-09-03T16:41:36.167Z,34.34
2022-09-03T16:44:09.986Z,35.37
2022-09-03T16:46:44.387Z,36.80
2022-09-03T16:49:23.391Z,37.33
2022-09-03T16:51:55.014Z,37.51
2022-09-03T16:54:36.988Z,38.00
2022-09-03T16:57:12.814Z,38.09
2022-09-03T16:59:58.390Z,38.96
2022-09-03T17:02:46.602Z,38.52
2022-09-03T17:05:21.761Z,38.96
2022-09-03T17:08:05.025Z,38.99
2022-09-03T17:10:37.258Z,39.41
2022-09-03T17:13:15.131Z,39.63
2022-09-03T17:15:47.193Z,39.31
2022-09-03T17:18:22.848Z,38.80
2022-09-03T17:20:59.642Z,38.85
2022-09-03T17:23:38.100Z,39.63
2022-09-03T17:26:08.389Z,39.83
2022-09-03T17:28:44.504Z,40.42
2022-09-03T17:31:16.986Z,40.63
2022-09-03T17:33:50.998Z,40.86
2022-09-03T17:36:24.371Z,41.02
2022-09-03T17:39:26.325Z,41.13
2022-09-03T17:41:54.762Z,41.96
2022-09-03T17:44:30.819Z,42.30
2022-09-03T17:47:06.808Z,43.65
2022-09-03T17:49:41.993Z,44.19
2022-09-03T17:52:20.879Z,44.40
2022-09-03T17:54:49.762Z,45.33
2022-09-03T17:57:19.911Z,45.74
2022-09-03T17:59:52.623Z,45.88
2022-09-03T18:02:26.697Z,46.55
2022-09-03T18:04:57.157Z,46.78
2022-09-03T18:07:30.543Z,47.13
2022-09-03T18:10:04.976Z,47.64
2022-09-03T18:12:40.098Z,47.80
2022-09-03T18:15:10.739Z,48.05
2022-09-03T18:17:40.267Z,48.70
2022-09-03T18:20:26.629Z,48.81
2022-09-03T18:23:21.145Z,49.78
2022-09-03T18:26:08.841Z,49.96
2022-09-03T18:28:56.586Z,50.21
2022-09-03T18:31:41.897Z,50.18
2022-09-03T18:34:27.621Z,49.93
2022-09-03T18:37:15.724Z,50.08
2022-09-03T18:40:02.997Z,49.82
2022-09-03T18:42:58.206Z,49.93
2022-09-03T18:46:28.069Z,49.93
2022-09-03T18:48:55.172Z,50.09
2022-09-03T18:51:45.528Z,50.76
2022-09-03T18:55:06.638Z,50.93
2022-09-03T18:57:58.346Z,51.68
2022-09-03T19:00:46.058Z,52.81
2022-09-03T19:03:42.453Z,53.50
2022-09-03T19:06:35.906Z,54.29
2022-09-03T19:09:24.773Z,55.18
2022-09-03T19:12:17.556Z,55.72
2022-09-03T19:15:07.713Z,56.14
2022-09-03T19:18:02.107Z,56.94
2022-09-03T19:20:47.863Z,56.88
2022-09-03T19:23:33.045Z,57.48
2022-09-03T19:26:21.840Z,57.44
2022-09-03T19:29:10.135Z,58.38
2022-09-03T19:32:02.211Z,58.17
2022-09-03T19:35:07.799Z,58.87
2022-09-03T19:37:55.631Z,59.80
2022-09-03T19:40:52.399Z,60.09
2022-09-03T19:43:43.975Z,61.71
2022-09-03T19:46:33.799Z,62.71
2022-09-03T19:49:26.854Z,63.60
2022-09-03T19:52:18.488Z,63.73
2022-09-03T19:55:03.848Z,64.18
2022-09-03T19:57:49.629Z,64.23
2022-09-03T20:00:34.944Z,64.18
2022-09-03T20:03:20.727Z,63.79
2022-09-03T20:06:11.064Z,63.42
2022-09-03T20:08:56.303Z,63.08
2022-09-03T20:11:25.477Z,62.68
2022-09-03T20:14:10.655Z,62.32
2022-09-03T20:16:41.541Z,62.46
2022-09-03T20:19:15.072Z,62.70
2022-09-03T20:21:49.417Z,63.08
2022-09-03T20:24:28.172Z,63.42
2022-09-03T20:27:02.181Z,63.98
2022-09-03T20:29:44.964Z,63.45
2022-09-03T20:32:15.475Z,63.54
2022-09-03T20:34:47.897Z,63.53
2022-09-03T20:37:24.749Z,63.40
2022-09-03T20:40:00.283Z,63.63
2022-09-03T20:42:36.106Z,63.93
2022-09-03T20:45:09.696Z,64.34
2022-09-03T20:47:46.130Z,64.60
2022-09-03T20:50:20.706Z,64.58
2022-09-03T20:52:53.250Z,64.92
2022-09-03T20:55:22.338Z,65.62
2022-09-03T20:57:54.053Z,65.75
2022-09-03T21:00:23.182Z,66.33
2022-09-03T21:03:23.982Z,66.35
2022-09-03T21:05:56.174Z,67.17
2022-09-03T21:08:33.033Z,67.19
2022-09-03T21:11:06.282Z,67.70
2022-09-03T21:13:40.227Z,67.41
2022-09-03T21:16:22.827Z,67.58
2022-09-03T21:18:56.289Z,67.26
2022-09-03T21:21:27.287Z,67.55
2022-09-03T21:24:00.069Z,67.34
2022-09-03T21:26:30.344Z,67.89
2022-09-03T21:29:03.345Z,67.82
2022-09-03T21:31:38.439Z,67.90
2022-09-03T21:34:09.624Z,68.21
2022-09-03T21:36:38.219Z,68.03
2022-09-03T21:39:10.469Z,68.17
2022-09-03T21:41:41.488Z,68.14
2022-09-03T21:44:12.896Z,68.35
2022-09-03T21:46:42.531Z,68.93
2022-09-03T21:49:11.256Z,68.99
2022-09-03T21:51:42.494Z,68.67
2022-09-03T21:54:14.593Z,68.68
2022-09-03T21:56:57.010Z,69.05
2022-09-03T21:59:32.269Z,68.84
2022-09-03T22:02:04.414Z,69.36
2022-09-03T22:04:32.068Z,69.66
2022-09-03T22:07:05.205Z,70.11
2022-09-03T22:09:37.586Z,70.02
2022-09-03T22:12:09.690Z,70.21
2022-09-03T22:14:41.567Z,70.66
2022-09-03T22:17:12.372Z,71.41
2022-09-03T22:19:40.219Z,71.66
2022-09-03T22:22:11.108Z,71.69
2022-09-03T22:24:43.538Z,71.80
2022-09-03T22:27:19.212Z,72.38
2022-09-03T22:29:53.052Z,72.93
2022-09-03T22:32:28.009Z,72.90
2022-09-03T22:35:14.714Z,73.45
2022-09-03T22:37:49.726Z,73.72
2022-09-03T22:40:25.156Z,73.78
2022-09-03T22:43:01.805Z,74.23
2022-09-03T22:45:47.143Z,75.35
2022-09-03T22:48:22.133Z,75.44
2022-09-03T22:50:53.574Z,75.81
2022-09-03T22:53:26.897Z,76.08
2022-09-03T22:56:00.434Z,76.52
2022-09-03T22:58:30.741Z,77.45
2022-09-03T23:01:04.010Z,77.74
2022-09-03T23:03:36.977Z,77.96
2022-09-03T23:06:07.021Z,78.58
2022-09-03T23:08:40.183Z,79.33
2022-09-03T23:11:10.893Z,79.09
2022-09-03T23:13:41.788Z,79.26
2022-09-03T23:16:12.507Z,79.55
2022-09-03T23:18:42.489Z,79.34
2022-09-03T23:21:21.373Z,79.75
2022-09-03T23:23:53.944Z,80.73
2022-09-03T23:26:27.992Z,81.18
2022-09-03T23:29:00.074Z,81.44
2022-09-03T23:31:28.240Z,81.42
2022-09-03T23:33:56.127Z,81.11
2022-09-03T23:36:55.009Z,81.18
2022-09-03T23:39:24.538Z,81.62
2022-09-03T23:42:01.043Z,81.84
2022-09-03T23:44:33.817Z,81.84
2022-09-03T23:47:10.566Z,82.67
2022-09-03T23:49:43.036Z,82.71
2022-09-03T23:52:20.748Z,83.19
2022-09-03T23:54:49.634Z,82.98
2022-09-03T23:57:24.539Z,83.15
